Time;durP1;ratioP1;P1;durP2;ratioP2;P2;SDS_P1;SDS_P2;PMS_P1;PMS_P2;Temp;Humidity;BMP_temperature;BMP_pressure;BME280_temperature;BME280_humidity;BME280_pressure;Samples;Min_cycle;Max_cycle;Signal;HPM_P1;HPM_P2
2021/07/25 00:02:09;;;;;;;47.08;30.15;;;19.70;99.90;;;;;;5106905;27;20042;-85
2021/07/25 00:04:58;;;;;;;52.22;31.85;;;19.40;99.90;;;;;;5110666;27;20091;-80
2021/07/25 00:07:45;;;;;;;52.33;32.00;;;19.40;99.90;;;;;;5107980;27;20039;-85
2021/07/25 00:10:32;;;;;;;57.25;35.28;;;19.40;99.90;;;;;;5108417;27;20126;-84
2021/07/25 00:13:19;;;;;;;50.67;31.73;;;19.40;99.90;;;;;;5112913;27;20046;-85
2021/07/25 00:16:07;;;;;;;52.70;30.77;;;19.40;99.90;;;;;;5110253;27;20059;-83
2021/07/25 00:18:57;;;;;;;51.83;32.38;;;19.40;99.90;;;;;;5114756;27;20055;-83
2021/07/25 00:21:45;;;;;;;54.70;32.42;;;19.30;99.90;;;;;;5109360;27;20657;-85
2021/07/25 00:24:35;;;;;;;54.70;31.65;;;19.30;99.90;;;;;;5111914;27;20055;-82
2021/07/25 00:27:28;;;;;;;52.72;31.80;;;19.40;99.90;;;;;;5109197;27;20074;-85
2021/07/25 00:30:15;;;;;;;51.78;31.67;;;19.40;99.90;;;;;;5102500;27;20039;-84
2021/07/25 00:33:04;;;;;;;48.90;30.13;;;19.30;99.90;;;;;;5128159;27;20047;-85
2021/07/25 00:35:51;;;;;;;49.58;28.70;;;19.40;99.90;;;;;;5112110;27;20035;-85
2021/07/25 00:38:40;;;;;;;50.53;31.27;;;19.40;99.90;;;;;;5105494;28;20044;-84
2021/07/25 00:41:27;;;;;;;51.33;30.88;;;19.30;99.90;;;;;;5111794;27;20061;-83
2021/07/25 00:44:14;;;;;;;55.47;31.20;;;19.10;99.90;;;;;;5114411;27;20047;-83
2021/07/25 00:47:02;;;;;;;48.58;30.27;;;19.00;99.90;;;;;;5105505;27;20494;-85
2021/07/25 00:49:49;;;;;;;46.50;30.42;;;19.00;99.90;;;;;;5123685;27;20046;-84
2021/07/25 00:52:37;;;;;;;53.83;32.08;;;18.90;99.90;;;;;;5111925;27;20091;-86
2021/07/25 00:55:27;;;;;;;52.25;32.05;;;18.80;99.90;;;;;;5101224;27;20044;-83
2021/07/25 00:58:14;;;;;;;;;;;18.70;99.90;;;;;;5107402;27;20047;-85
2021/07/25 01:01:01;;;;;;;54.40;32.50;;;18.70;99.90;;;;;;5107921;27;19947;-85
2021/07/25 01:04:02;;;;;;;52.63;31.02;;;18.80;99.90;;;;;;5112348;27;20490;-85
2021/07/25 01:07:04;;;;;;;60.45;33.88;;;18.70;99.90;;;;;;5106614;27;20032;-85
2021/07/25 01:09:56;;;;;;;54.95;32.45;;;18.70;99.90;;;;;;5103523;27;21631;-84
2021/07/25 01:12:50;;;;;;;54.70;31.52;;;18.70;99.90;;;;;;5108837;27;20076;-85
2021/07/25 01:15:40;;;;;;;58.25;32.47;;;18.60;99.90;;;;;;5112628;27;20168;-84
2021/07/25 01:18:27;;;;;;;;;;;18.60;99.90;;;;;;5109855;27;20066;-85
2021/07/25 01:21:17;;;;;;;54.50;31.20;;;19.30;99.90;;;;;;5113400;27;19932;-81
2021/07/25 01:24:04;;;;;;;;;;;18.60;99.90;;;;;;5110458;27;20039;-84
2021/07/25 01:26:51;;;;;;;51.45;31.55;;;18.50;99.90;;;;;;5107888;27;19923;-85
2021/07/25 01:29:48;;;;;;;53.88;31.45;;;18.50;99.90;;;;;;5105281;27;20052;-83
2021/07/25 01:32:38;;;;;;;53.83;30.35;;;18.50;99.90;;;;;;5132749;27;20043;-85
2021/07/25 01:35:26;;;;;;;;;;;18.60;99.90;;;;;;5101280;27;20047;-84
2021/07/25 01:38:15;;;;;;;56.88;30.50;;;18.50;99.90;;;;;;5126995;27;19927;-84
2021/07/25 01:41:04;;;;;;;49.33;29.98;;;18.40;99.90;;;;;;5110632;27;20043;-84
2021/07/25 01:43:52;;;;;;;53.47;32.00;;;18.40;99.90;;;;;;5110193;27;20049;-83
2021/07/25 01:46:39;;;;;;;47.58;28.63;;;18.40;99.90;;;;;;5110042;27;20035;-84
2021/07/25 01:49:26;;;;;;;49.47;29.60;;;18.40;99.90;;;;;;5125653;27;20054;-85
2021/07/25 01:52:14;;;;;;;44.92;28.98;;;18.40;99.90;;;;;;5112438;27;20178;-82
2021/07/25 01:55:03;;;;;;;50.03;30.00;;;18.50;99.90;;;;;;5107688;27;20078;-85
2021/07/25 01:57:50;;;;;;;47.13;27.58;;;18.40;99.90;;;;;;5105617;28;20031;-84
2021/07/25 02:00:37;;;;;;;43.80;28.45;;;18.40;99.90;;;;;;5102104;27;20558;-85
2021/07/25 02:03:28;;;;;;;47.17;28.02;;;18.40;99.90;;;;;;5103360;28;20039;-84
2021/07/25 02:06:15;;;;;;;44.10;27.33;;;18.40;99.90;;;;;;5115328;28;20046;-84
2021/07/25 02:09:02;;;;;;;47.45;27.60;;;18.40;99.90;;;;;;5120384;28;20050;-83
2021/07/25 02:11:51;;;;;;;42.70;26.60;;;19.50;99.90;;;;;;5112778;28;20561;-85
2021/07/25 02:14:39;;;;;;;43.83;26.15;;;18.20;99.90;;;;;;5117829;28;20047;-84
2021/07/25 02:17:26;;;;;;;43.75;26.42;;;18.20;99.90;;;;;;5117803;27;20045;-85
2021/07/25 02:20:13;;;;;;;46.17;27.38;;;18.20;99.90;;;;;;5115670;28;20121;-83
2021/07/25 02:23:00;;;;;;;43.60;26.75;;;18.10;99.90;;;;;;5115414;28;20134;-84
2021/07/25 02:25:47;;;;;;;41.25;24.90;;;18.10;99.90;;;;;;5117180;27;20057;-84
2021/07/25 02:28:36;;;;;;;41.83;25.15;;;18.10;99.90;;;;;;5098980;28;20044;-84
2021/07/25 02:31:23;;;;;;;42.97;25.17;;;18.00;99.90;;;;;;5105358;28;20031;-83
2021/07/25 02:34:11;;;;;;;43.25;25.55;;;18.00;99.90;;;;;;5128717;28;20506;-84
2021/07/25 02:36:59;;;;;;;41.95;24.48;;;18.00;99.90;;;;;;5115054;28;20077;-83
2021/07/25 02:39:46;;;;;;;37.38;23.33;;;17.90;99.90;;;;;;5106955;28;20043;-83
2021/07/25 02:42:33;;;;;;;40.25;23.63;;;17.90;99.90;;;;;;5113069;28;20472;-84
2021/07/25 02:45:22;;;;;;;38.58;23.63;;;17.90;99.90;;;;;;5106341;27;20048;-84
2021/07/25 02:48:09;;;;;;;42.17;24.17;;;17.90;99.90;;;;;;5105260;28;20414;-85
2021/07/25 02:50:58;;;;;;;39.47;23.08;;;17.90;99.90;;;;;;5107134;28;20105;-84
2021/07/25 02:53:45;;;;;;;38.33;23.15;;;17.80;99.90;;;;;;5105718;27;20126;-84
2021/07/25 02:56:32;;;;;;;37.90;22.42;;;17.80;99.90;;;;;;5128001;27;20166;-85
2021/07/25 02:59:19;;;;;;;35.53;22.10;;;17.80;99.90;;;;;;5125788;27;20043;-85
2021/07/25 03:02:08;;;;;;;37.10;22.83;;;17.80;99.90;;;;;;5113888;27;20036;-84
2021/07/25 03:04:55;;;;;;;35.95;22.27;;;17.90;99.90;;;;;;5116556;27;20122;-85
2021/07/25 03:07:42;;;;;;;37.28;22.20;;;17.70;99.90;;;;;;5115473;27;20452;-84
2021/07/25 03:10:29;;;;;;;36.90;22.52;;;17.70;99.90;;;;;;5113606;27;20039;-85
2021/07/25 03:13:16;;;;;;;36.42;21.80;;;17.60;99.90;;;;;;5117143;27;20043;-84
2021/07/25 03:16:04;;;;;;;33.25;21.45;;;17.60;99.90;;;;;;5115598;27;20047;-84
2021/07/25 03:18:53;;;;;;;36.58;22.27;;;17.60;99.90;;;;;;5121634;27;20070;-84
2021/07/25 03:21:40;;;;;;;38.35;23.92;;;17.50;99.90;;;;;;5113522;27;20038;-85
2021/07/25 03:24:27;;;;;;;35.10;22.33;;;17.40;99.90;;;;;;5106813;27;20053;-83
2021/07/25 03:27:14;;;;;;;32.90;21.40;;;17.40;99.90;;;;;;5115704;27;20498;-84
2021/07/25 03:30:02;;;;;;;42.67;23.27;;;17.40;99.90;;;;;;5118003;27;20055;-81
2021/07/25 03:32:49;;;;;;;42.03;23.98;;;17.40;99.90;;;;;;5115553;27;20043;-84
2021/07/25 03:35:38;;;;;;;39.17;23.33;;;17.30;99.90;;;;;;5115467;27;20514;-85
2021/07/25 03:38:26;;;;;;;35.72;22.55;;;17.30;99.90;;;;;;5115802;27;20031;-85
2021/07/25 03:41:13;;;;;;;40.13;22.75;;;17.20;99.90;;;;;;5111982;27;20502;-84
2021/07/25 03:44:00;;;;;;;42.50;24.30;;;17.20;99.90;;;;;;5119956;27;20579;-83
2021/07/25 03:46:47;;;;;;;38.17;22.77;;;17.20;99.90;;;;;;5117707;27;20413;-84
2021/07/25 03:49:34;;;;;;;39.30;22.58;;;17.20;99.90;;;;;;5122045;27;20043;-85
2021/07/25 03:52:23;;;;;;;42.70;24.88;;;17.20;99.90;;;;;;5113017;27;20566;-84
2021/07/25 03:55:12;;;;;;;38.47;23.63;;;17.10;99.90;;;;;;5118672;27;20043;-83
2021/07/25 03:57:59;;;;;;;35.63;22.67;;;17.10;99.90;;;;;;5124351;27;20038;-84
2021/07/25 04:00:46;;;;;;;36.78;22.73;;;17.10;99.90;;;;;;5114221;27;20090;-83
2021/07/25 04:03:33;;;;;;;38.10;22.08;;;17.20;99.90;;;;;;5114510;27;20198;-84
2021/07/25 04:06:20;;;;;;;39.92;24.20;;;17.20;99.90;;;;;;5115922;27;20036;-84
2021/07/25 04:09:09;;;;;;;39.88;22.75;;;17.20;99.90;;;;;;5120774;27;20121;-84
2021/07/25 04:11:56;;;;;;;40.08;22.98;;;17.20;99.90;;;;;;5118759;27;20421;-85
2021/07/25 04:14:43;;;;;;;36.20;22.40;;;17.20;99.90;;;;;;5117146;27;20043;-84
2021/07/25 04:17:33;;;;;;;40.17;23.80;;;17.30;99.90;;;;;;5123899;27;20064;-85
2021/07/25 04:20:21;;;;;;;39.58;22.85;;;17.20;99.90;;;;;;5113898;27;20043;-85
2021/07/25 04:23:08;;;;;;;40.03;23.33;;;17.20;99.90;;;;;;5114012;27;20122;-82
2021/07/25 04:25:57;;;;;;;35.40;21.70;;;17.20;99.90;;;;;;5113898;27;20045;-84
2021/07/25 04:28:44;;;;;;;37.38;21.60;;;17.20;99.90;;;;;;5117056;27;20038;-83
2021/07/25 04:31:33;;;;;;;39.05;21.33;;;17.30;99.90;;;;;;5111307;27;20039;-83
2021/07/25 04:34:21;;;;;;;33.78;20.48;;;17.30;99.90;;;;;;5109470;27;20048;-85
2021/07/25 04:37:21;;;;;;;34.42;20.33;;;17.40;99.90;;;;;;5109881;27;20035;-85
2021/07/25 04:40:09;;;;;;;32.15;20.33;;;17.40;99.90;;;;;;5111936;27;20046;-85
2021/07/25 04:42:59;;;;;;;33.97;22.00;;;17.30;99.90;;;;;;5114347;27;20054;-85
2021/07/25 04:45:53;;;;;;;39.03;22.05;;;17.30;99.90;;;;;;5116450;27;20046;-84
2021/07/25 04:48:46;;;;;;;33.72;20.02;;;17.30;99.90;;;;;;5110619;27;20040;-86
2021/07/25 04:51:37;;;;;;;30.40;19.88;;;17.40;99.90;;;;;;5123894;27;20175;-83
2021/07/25 04:54:28;;;;;;;35.95;21.58;;;17.30;99.90;;;;;;5122406;27;20049;-84
2021/07/25 04:57:19;;;;;;;34.63;21.35;;;17.40;99.90;;;;;;5111609;27;20039;-85
2021/07/25 05:00:09;;;;;;;33.95;21.10;;;17.30;99.90;;;;;;5117103;27;21924;-84
2021/07/25 05:03:00;;;;;;;34.95;21.35;;;17.40;99.90;;;;;;5109306;27;20047;-84
2021/07/25 05:05:50;;;;;;;31.17;19.23;;;17.30;99.90;;;;;;5116439;27;20035;-83
2021/07/25 05:08:38;;;;;;;34.33;19.47;;;17.40;99.90;;;;;;5113262;27;20122;-85
2021/07/25 05:11:30;;;;;;;33.70;19.67;;;17.40;99.90;;;;;;5112411;27;20285;-83
2021/07/25 05:14:21;;;;;;;32.25;19.10;;;17.50;99.90;;;;;;5112226;27;20059;-85
2021/07/25 05:17:16;;;;;;;30.67;18.98;;;17.50;99.90;;;;;;5112265;27;20181;-83
2021/07/25 05:20:06;;;;;;;32.78;19.00;;;17.50;99.90;;;;;;5111423;27;20495;-85
2021/07/25 05:23:00;;;;;;;31.15;18.60;;;17.60;99.90;;;;;;5116858;27;20060;-83
2021/07/25 05:25:49;;;;;;;32.03;19.23;;;17.70;99.90;;;;;;5126030;27;20505;-84
2021/07/25 05:28:37;;;;;;;30.17;18.73;;;17.80;99.90;;;;;;5115559;27;20043;-84
2021/07/25 05:31:30;;;;;;;24.88;17.70;;;17.80;99.90;;;;;;5125356;27;20043;-85
2021/07/25 05:34:18;;;;;;;26.55;17.38;;;17.90;99.90;;;;;;5101838;27;20514;-85
2021/07/25 05:37:05;;;;;;;27.48;16.95;;;17.90;99.90;;;;;;5111618;27;20039;-85
2021/07/25 05:39:52;;;;;;;27.90;17.50;;;18.00;99.90;;;;;;5102226;27;20045;-84
2021/07/25 05:42:40;;;;;;;29.85;18.45;;;18.00;99.90;;;;;;5112838;27;20048;-84
2021/07/25 05:45:28;;;;;;;30.10;17.90;;;18.10;99.90;;;;;;5100371;27;20051;-85
2021/07/25 05:48:15;;;;;;;26.20;15.73;;;18.00;99.90;;;;;;5118236;27;20528;-84
2021/07/25 05:51:03;;;;;;;28.25;17.10;;;18.10;99.90;;;;;;5114788;27;20047;-85
2021/07/25 05:53:50;;;;;;;25.80;16.35;;;18.50;99.90;;;;;;5120830;27;20043;-85
2021/07/25 05:56:37;;;;;;;26.52;17.23;;;18.20;99.90;;;;;;5115170;28;20042;-85
2021/07/25 05:59:24;;;;;;;22.42;14.77;;;18.30;99.90;;;;;;5109441;27;20131;-85
2021/07/25 06:02:11;;;;;;;24.17;15.50;;;18.40;99.90;;;;;;5110335;27;20099;-84
2021/07/25 06:04:59;;;;;;;22.15;15.25;;;18.40;99.90;;;;;;5103399;27;20422;-85
2021/07/25 06:07:48;;;;;;;27.85;16.52;;;18.50;99.90;;;;;;5111810;28;20135;-85
2021/07/25 06:10:40;;;;;;;24.02;14.90;;;18.50;99.90;;;;;;5108879;27;20177;-85
2021/07/25 06:13:28;;;;;;;26.98;16.08;;;18.60;99.90;;;;;;5113255;27;20117;-85
2021/07/25 06:16:15;;;;;;;27.02;15.68;;;18.80;99.90;;;;;;5111210;27;20122;-84
2021/07/25 06:19:02;;;;;;;30.40;16.05;;;18.80;99.90;;;;;;5111050;27;20125;-83
2021/07/25 06:21:49;;;;;;;27.85;16.50;;;18.90;99.90;;;;;;5112388;28;20405;-85
2021/07/25 06:24:38;;;;;;;25.50;14.68;;;19.10;99.90;;;;;;5117421;27;20648;-86
2021/07/25 06:27:25;;;;;;;23.98;15.40;;;20.20;99.90;;;;;;5114854;27;20043;-85
2021/07/25 06:30:12;;;;;;;21.88;14.65;;;19.50;99.90;;;;;;5116830;27;20090;-84
2021/07/25 06:33:01;;;;;;;21.77;13.57;;;19.70;99.90;;;;;;5122998;27;20481;-85
2021/07/25 06:35:48;;;;;;;20.52;13.93;;;19.90;99.90;;;;;;5128992;27;20135;-85
2021/07/25 06:38:36;;;;;;;22.35;12.65;;;20.10;99.90;;;;;;5114752;27;20135;-85
2021/07/25 06:41:24;;;;;;;19.58;12.55;;;20.30;99.90;;;;;;5111907;27;20508;-86
2021/07/25 06:44:11;;;;;;;21.67;12.95;;;20.50;99.90;;;;;;5107103;27;20178;-86
2021/07/25 06:46:59;;;;;;;18.95;11.50;;;20.40;99.90;;;;;;5114370;27;20130;-86
2021/07/25 06:49:46;;;;;;;19.60;11.05;;;20.50;99.90;;;;;;5105221;27;20043;-83
2021/07/25 06:52:33;;;;;;;13.82;9.95;;;20.50;99.90;;;;;;5127729;27;20050;-85
2021/07/25 06:55:22;;;;;;;18.35;10.30;;;20.70;99.90;;;;;;5107463;27;20099;-85
2021/07/25 06:58:10;;;;;;;16.08;10.13;;;20.80;99.90;;;;;;5111984;27;20035;-87
2021/07/25 07:00:58;;;;;;;18.30;9.82;;;20.80;99.90;;;;;;5109851;27;20047;-86
2021/07/25 07:03:45;;;;;;;15.20;9.40;;;20.90;99.90;;;;;;5107364;27;20072;-86
2021/07/25 07:06:32;;;;;;;14.73;9.82;;;21.00;99.90;;;;;;5110840;27;20514;-86
2021/07/25 07:09:19;;;;;;;15.07;10.05;;;20.90;99.90;;;;;;5113150;27;20521;-84
2021/07/25 07:12:07;;;;;;;13.60;9.75;;;20.90;99.90;;;;;;5129758;27;20518;-85
2021/07/25 07:14:55;;;;;;;15.93;9.70;;;20.90;99.90;;;;;;5114441;27;20039;-86
2021/07/25 07:17:43;;;;;;;14.52;8.65;;;20.90;99.90;;;;;;5111237;27;20167;-85
2021/07/25 07:20:30;;;;;;;12.73;8.02;;;20.90;99.90;;;;;;5124375;27;20038;-85
2021/07/25 07:23:21;;;;;;;13.52;8.05;;;20.70;99.90;;;;;;5106244;27;20047;-83
2021/07/25 07:26:08;;;;;;;13.55;7.82;;;20.70;99.90;;;;;;5108887;27;20054;-85
2021/07/25 07:28:55;;;;;;;13.02;7.93;;;20.70;99.90;;;;;;5117533;27;20172;-85
2021/07/25 07:31:43;;;;;;;14.05;8.77;;;20.70;99.90;;;;;;5112398;27;20043;-85
2021/07/25 07:34:30;;;;;;;13.88;7.90;;;20.60;99.90;;;;;;5101926;27;20043;-81
2021/07/25 07:37:18;;;;;;;13.13;8.63;;;20.70;99.90;;;;;;5099266;27;20471;-83
2021/07/25 07:40:07;;;;;;;13.15;8.82;;;20.70;99.90;;;;;;5113694;27;20043;-87
2021/07/25 07:42:54;;;;;;;13.85;8.95;;;20.70;99.90;;;;;;5117282;27;20049;-83
2021/07/25 07:45:41;;;;;;;12.55;7.78;;;20.70;99.90;;;;;;5121518;27;20118;-84
2021/07/25 07:48:30;;;;;;;14.07;8.68;;;20.80;99.90;;;;;;5115153;27;20035;-83
2021/07/25 07:51:17;;;;;;;15.57;8.82;;;20.80;99.90;;;;;;5121222;27;20036;-84
2021/07/25 07:54:05;;;;;;;13.13;8.20;;;20.90;99.90;;;;;;5100868;27;20520;-85
2021/07/25 07:56:52;;;;;;;14.20;8.90;;;21.00;99.90;;;;;;5128236;27;20065;-85
2021/07/25 07:59:39;;;;;;;14.52;8.27;;;21.10;99.90;;;;;;5121402;27;20495;-87
2021/07/25 08:02:26;;;;;;;11.20;7.65;;;21.10;99.90;;;;;;5111431;27;20561;-84
2021/07/25 08:05:18;;;;;;;16.30;8.50;;;21.40;99.90;;;;;;5112850;27;20479;-86
2021/07/25 08:08:05;;;;;;;12.23;7.80;;;21.30;99.90;;;;;;5114205;27;20043;-86
2021/07/25 08:10:56;;;;;;;12.77;7.70;;;21.40;99.90;;;;;;5114032;27;20042;-85
2021/07/25 08:13:44;;;;;;;13.20;8.15;;;21.40;99.90;;;;;;5126993;27;20057;-85
2021/07/25 08:16:31;;;;;;;15.15;8.77;;;21.50;99.90;;;;;;5115850;27;20043;-86
2021/07/25 08:19:18;;;;;;;19.33;9.18;;;21.50;99.90;;;;;;5105964;28;20574;-86
2021/07/25 08:22:07;;;;;;;13.32;8.73;;;21.50;99.90;;;;;;5107521;27;20039;-86
2021/07/25 08:24:55;;;;;;;14.15;9.05;;;21.70;99.90;;;;;;5111767;27;20047;-84
2021/07/25 08:27:42;;;;;;;14.35;8.90;;;21.80;99.90;;;;;;5103877;28;20047;-85
2021/07/25 08:30:31;;;;;;;16.27;9.63;;;22.30;99.90;;;;;;5100823;27;20445;-85
2021/07/25 08:33:18;;;;;;;16.83;10.15;;;22.00;99.90;;;;;;5104464;27;20043;-85
2021/07/25 08:36:05;;;;;;;16.65;10.48;;;22.20;99.90;;;;;;5104730;27;20057;-86
2021/07/25 08:38:54;;;;;;;16.42;10.50;;;22.20;99.90;;;;;;5118593;27;20047;-86
2021/07/25 08:41:59;;;;;;;20.85;11.98;;;22.30;99.90;;;;;;5103465;27;20035;-85
2021/07/25 08:44:49;;;;;;;17.23;11.00;;;22.40;99.90;;;;;;5103872;27;20058;-85
2021/07/25 08:47:39;;;;;;;17.67;11.65;;;22.70;99.90;;;;;;5108531;27;20047;-86
2021/07/25 08:50:29;;;;;;;21.23;12.88;;;22.90;99.90;;;;;;5117377;27;20051;-85
2021/07/25 08:53:18;;;;;;;20.30;12.32;;;23.00;99.90;;;;;;5111545;27;20520;-85
2021/07/25 08:56:09;;;;;;;17.38;11.30;;;23.10;99.90;;;;;;5112988;27;20126;-86
2021/07/25 08:58:58;;;;;;;17.42;10.88;;;23.20;99.90;;;;;;5104800;27;20192;-87
2021/07/25 09:01:51;;;;;;;16.80;10.68;;;23.40;99.90;;;;;;5112563;27;20544;-86
2021/07/25 09:04:39;;;;;;;13.50;8.98;;;23.20;99.90;;;;;;5108093;27;20483;-86
2021/07/25 09:07:27;;;;;;;16.52;10.40;;;23.80;99.90;;;;;;5118665;27;20502;-86
2021/07/25 09:10:17;;;;;;;13.38;9.02;;;23.50;99.90;;;;;;5133280;27;20035;-86
2021/07/25 09:13:06;;;;;;;17.00;10.13;;;23.60;99.90;;;;;;5127723;27;20047;-86
2021/07/25 09:15:53;;;;;;;15.35;8.88;;;23.70;99.90;;;;;;5113611;27;20112;-84
2021/07/25 09:18:41;;;;;;;14.18;9.38;;;23.90;99.90;;;;;;5134283;27;20039;-87
2021/07/25 09:21:37;;;;;;;11.90;8.63;;;24.00;99.90;;;;;;5117663;27;20535;-84
2021/07/25 09:24:26;;;;;;;12.98;8.50;;;24.10;99.90;;;;;;5112196;27;20042;-84
2021/07/25 09:27:14;;;;;;;13.63;8.15;;;24.20;99.90;;;;;;5124905;27;20043;-86
2021/07/25 09:30:17;;;;;;;13.90;8.15;;;24.00;99.90;;;;;;5120734;27;20040;-85
2021/07/25 09:33:24;;;;;;;15.85;9.48;;;24.20;99.90;;;;;;5112266;27;20126;-86
2021/07/25 09:36:14;;;;;;;15.32;8.70;;;24.20;99.90;;;;;;5116267;27;20043;-85
2021/07/25 09:39:02;;;;;;;11.48;7.63;;;24.20;99.90;;;;;;5107948;27;20136;-85
2021/07/25 09:41:53;;;;;;;10.65;7.45;;;24.30;99.90;;;;;;5114526;27;20050;-83
2021/07/25 09:44:45;;;;;;;12.05;7.65;;;24.50;99.90;;;;;;5112947;27;20185;-86
2021/07/25 09:47:36;;;;;;;16.20;8.85;;;24.50;99.90;;;;;;5126398;27;20043;-86
2021/07/25 09:50:27;;;;;;;12.40;7.68;;;24.60;99.90;;;;;;5116537;27;20607;-86
2021/07/25 09:53:15;;;;;;;11.82;7.95;;;24.90;99.90;;;;;;5120557;27;20096;-86
2021/07/25 09:56:10;;;;;;;12.73;7.57;;;25.00;99.90;;;;;;5108706;27;20047;-86
2021/07/25 09:58:59;;;;;;;9.10;6.95;;;25.20;99.90;;;;;;5117436;27;20467;-87
2021/07/25 10:01:46;;;;;;;10.73;6.95;;;25.40;99.90;;;;;;5106032;27;20045;-86
2021/07/25 10:04:36;;;;;;;11.82;7.35;;;25.80;99.90;;;;;;5128631;27;20118;-87
2021/07/25 10:07:24;;;;;;;13.57;7.22;;;26.00;99.90;;;;;;5113670;28;20085;-87
2021/07/25 10:10:14;;;;;;;13.93;7.95;;;26.20;99.90;;;;;;5111727;27;20043;-86
2021/07/25 10:13:01;;;;;;;12.07;6.95;;;26.10;99.90;;;;;;5127272;28;20058;-85
2021/07/25 10:15:53;;;;;;;11.88;7.53;;;26.10;99.90;;;;;;5115945;27;20061;-86
2021/07/25 10:18:41;;;;;;;12.95;7.88;;;26.00;99.90;;;;;;5118124;28;20039;-86
2021/07/25 10:21:33;;;;;;;15.25;7.07;;;26.20;99.90;;;;;;5117369;28;20043;-86
2021/07/25 10:24:21;;;;;;;10.05;7.30;;;26.10;99.90;;;;;;5112633;28;20054;-86
2021/07/25 10:27:09;;;;;;;10.90;7.00;;;26.00;99.90;;;;;;5102629;28;20039;-86
2021/07/25 10:30:00;;;;;;;12.27;7.20;;;25.90;99.90;;;;;;5095804;28;20451;-86
2021/07/25 10:32:48;;;;;;;10.20;6.88;;;25.80;99.90;;;;;;5099296;28;20141;-88
2021/07/25 10:35:36;;;;;;;9.32;6.53;;;25.60;99.90;;;;;;5115939;27;20335;-87
2021/07/25 10:38:24;;;;;;;11.15;6.85;;;25.50;99.90;;;;;;5116085;28;20051;-86
2021/07/25 10:41:15;;;;;;;10.75;7.10;;;25.50;99.90;;;;;;5115981;28;20046;-86
2021/07/25 10:44:02;;;;;;;11.63;7.38;;;25.40;99.90;;;;;;5098486;28;20040;-86
2021/07/25 10:47:18;;;;;;;10.07;6.97;;;25.50;99.90;;;;;;5108255;28;20040;-87
2021/07/25 10:50:08;;;;;;;10.63;6.38;;;25.60;99.90;;;;;;5103330;28;20043;-85
2021/07/25 10:53:04;;;;;;;10.02;6.25;;;25.50;99.90;;;;;;5103729;28;20050;-84
2021/07/25 10:55:52;;;;;;;8.52;6.20;;;25.60;99.90;;;;;;5110147;27;20096;-87
2021/07/25 10:58:53;;;;;;;9.65;6.18;;;25.70;99.90;;;;;;5095726;27;20044;-86
2021/07/25 11:01:44;;;;;;;9.43;6.13;;;25.80;99.90;;;;;;5111989;28;20039;-86
2021/07/25 11:05:00;;;;;;;9.68;6.57;;;25.90;99.90;;;;;;5112627;28;20490;-86
2021/07/25 11:07:57;;;;;;;13.93;6.88;;;25.80;99.90;;;;;;5108111;28;20122;-86
2021/07/25 11:10:44;;;;;;;8.82;5.72;;;26.00;99.90;;;;;;5105478;28;20046;-85
2021/07/25 11:13:40;;;;;;;7.53;5.47;;;26.10;99.90;;;;;;5112867;27;20070;-87
2021/07/25 11:16:42;;;;;;;7.95;5.25;;;26.20;99.90;;;;;;5108898;27;20047;-87
2021/07/25 11:19:48;;;;;;;9.05;5.55;;;26.50;99.90;;;;;;5120403;27;20031;-86
2021/07/25 11:22:44;;;;;;;9.57;5.63;;;26.30;99.90;;;;;;5117066;27;20130;-86
2021/07/25 11:25:34;;;;;;;7.68;4.15;;;26.30;99.90;;;;;;5118629;27;20053;-87
2021/07/25 11:28:37;;;;;;;7.45;4.40;;;26.40;99.90;;;;;;5110638;28;20047;-88
2021/07/25 11:31:45;;;;;;;7.43;4.65;;;26.50;99.70;;;;;;5099077;28;20036;-86
2021/07/25 11:34:35;;;;;;;6.97;4.72;;;26.70;99.40;;;;;;5098540;28;20077;-87
2021/07/25 11:37:34;;;;;;;9.38;4.88;;;26.70;99.90;;;;;;5113635;27;20053;-87
2021/07/25 11:40:23;;;;;;;7.95;4.65;;;26.80;99.50;;;;;;5113275;28;20071;-86
2021/07/25 11:43:10;;;;;;;8.13;4.47;;;27.00;99.00;;;;;;5103802;28;20044;-87
2021/07/25 11:45:57;;;;;;;6.75;4.28;;;26.90;98.30;;;;;;5108480;27;20341;-87
2021/07/25 11:48:45;;;;;;;7.03;4.28;;;26.70;99.50;;;;;;5112125;27;20039;-85
2021/07/25 11:51:33;;;;;;;6.87;4.60;;;26.70;98.60;;;;;;5097957;28;20512;-86
2021/07/25 11:54:22;;;;;;;7.40;4.35;;;26.60;99.80;;;;;;5099321;28;20300;-85
2021/07/25 11:57:10;;;;;;;6.70;4.38;;;26.40;99.10;;;;;;5105260;27;20183;-86
2021/07/25 12:00:01;;;;;;;7.53;4.60;;;26.50;99.90;;;;;;5119955;27;20418;-87
2021/07/25 12:02:56;;;;;;;8.60;5.15;;;26.50;99.90;;;;;;5118180;27;20130;-88
2021/07/25 12:05:45;;;;;;;7.80;5.00;;;26.40;99.20;;;;;;5100170;27;20415;-87
2021/07/25 12:08:32;;;;;;;7.90;5.00;;;26.60;99.90;;;;;;5122840;27;20486;-87
2021/07/25 12:11:19;;;;;;;10.77;5.40;;;26.70;99.90;;;;;;5112725;27;20520;-86
2021/07/25 12:14:07;;;;;;;8.73;5.43;;;26.80;99.90;;;;;;5115329;27;20134;-87
2021/07/25 12:16:54;;;;;;;7.78;4.70;;;27.30;99.80;;;;;;5132293;27;20132;-87
2021/07/25 12:19:42;;;;;;;9.10;5.60;;;27.70;99.90;;;;;;5114008;27;20141;-86
2021/07/25 12:22:31;;;;;;;7.32;4.93;;;27.60;99.50;;;;;;5104680;27;20119;-85
2021/07/25 12:25:18;;;;;;;7.25;5.00;;;27.80;99.60;;;;;;5114293;27;20088;-85
2021/07/25 12:28:09;;;;;;;9.05;5.35;;;27.90;99.20;;;;;;5116904;27;20133;-88
2021/07/25 12:30:57;;;;;;;7.10;4.57;;;28.00;98.60;;;;;;5110642;27;20180;-85
2021/07/25 12:33:45;;;;;;;10.50;5.38;;;28.10;98.10;;;;;;5112772;27;20120;-86
2021/07/25 12:36:33;;;;;;;7.40;4.88;;;28.30;99.80;;;;;;5110006;27;20048;-87
2021/07/25 12:39:21;;;;;;;8.00;4.63;;;28.20;97.30;;;;;;5117590;27;20553;-87
2021/07/25 12:42:08;;;;;;;6.55;4.43;;;28.20;97.30;;;;;;5117612;27;20049;-87
2021/07/25 12:44:55;;;;;;;8.18;5.10;;;28.10;97.20;;;;;;5116345;27;20118;-86
2021/07/25 12:47:42;;;;;;;7.82;5.07;;;28.20;97.90;;;;;;5140820;27;20051;-87
2021/07/25 12:50:46;;;;;;;9.32;5.05;;;28.10;98.90;;;;;;5111211;27;20039;-86
2021/07/25 12:53:41;;;;;;;7.43;4.88;;;28.10;99.10;;;;;;5104298;27;20202;-88
2021/07/25 12:56:30;;;;;;;6.80;4.90;;;28.10;98.10;;;;;;5117898;27;20067;-87
2021/07/25 12:59:17;;;;;;;9.52;5.70;;;28.00;98.20;;;;;;5127672;27;20097;-83
2021/07/25 13:05:15;;;;;;;10.00;4.80;;;27.70;97.30;;;;;;5132170;27;20051;-87
2021/07/25 13:08:02;;;;;;;5.95;3.97;;;27.60;97.30;;;;;;5115346;27;20035;-87
2021/07/25 13:10:50;;;;;;;6.07;3.90;;;27.60;97.70;;;;;;5113852;27;20049;-87
2021/07/25 13:13:39;;;;;;;6.28;3.90;;;27.60;98.30;;;;;;5101546;27;20043;-85
2021/07/25 13:16:26;;;;;;;6.13;3.53;;;28.80;97.50;;;;;;5104677;27;20050;-86
2021/07/25 13:19:14;;;;;;;6.65;4.15;;;27.80;97.30;;;;;;5101165;28;20181;-88
2021/07/25 13:22:01;;;;;;;6.50;3.83;;;27.90;98.20;;;;;;5130085;27;20046;-85
2021/07/25 13:24:51;;;;;;;6.30;4.30;;;27.80;98.10;;;;;;5116477;27;20057;-87
2021/07/25 13:27:38;;;;;;;7.82;3.80;;;28.00;97.70;;;;;;5116793;27;20057;-86
2021/07/25 13:30:26;;;;;;;6.20;3.83;;;27.90;98.10;;;;;;5121655;27;20042;-86
2021/07/25 13:33:13;;;;;;;5.13;3.20;;;28.00;96.70;;;;;;5117677;27;20126;-86
2021/07/25 13:36:03;;;;;;;7.15;3.40;;;28.00;97.80;;;;;;5115887;27;20096;-86
2021/07/25 13:38:50;;;;;;;5.55;3.00;;;28.20;96.60;;;;;;5110140;27;20513;-87
2021/07/25 13:41:37;;;;;;;5.68;3.28;;;28.40;96.00;;;;;;5117253;27;20043;-87
2021/07/25 13:44:24;;;;;;;5.03;2.90;;;29.40;95.30;;;;;;5106179;27;20051;-84
2021/07/25 13:47:12;;;;;;;5.38;3.17;;;28.40;95.10;;;;;;5105267;27;20039;-87
2021/07/25 13:49:59;;;;;;;4.85;2.70;;;28.20;94.90;;;;;;5120759;27;20035;-87
2021/07/25 13:52:48;;;;;;;5.15;2.65;;;28.30;94.20;;;;;;5116378;27;20849;-84
2021/07/25 13:55:36;;;;;;;4.18;2.78;;;28.20;94.80;;;;;;5116165;27;20506;-86
2021/07/25 13:58:23;;;;;;;4.68;2.60;;;28.00;94.70;;;;;;5103868;27;20046;-84
2021/07/25 14:01:11;;;;;;;5.28;2.70;;;27.70;94.80;;;;;;5112104;27;20043;-87
2021/07/25 14:03:59;;;;;;;4.00;2.30;;;27.60;94.30;;;;;;5114544;27;20578;-83
2021/07/25 14:06:46;;;;;;;3.58;2.20;;;27.50;94.20;;;;;;5130161;27;20412;-84
2021/07/25 14:09:33;;;;;;;4.80;2.50;;;27.30;94.60;;;;;;5116344;28;20047;-86
2021/07/25 14:12:21;;;;;;;3.67;1.90;;;27.30;94.00;;;;;;5113954;28;20039;-87
2021/07/25 14:15:09;;;;;;;4.85;2.17;;;27.30;95.00;;;;;;5097777;28;20047;-87
2021/07/25 14:18:01;;;;;;;4.60;2.15;;;27.60;94.20;;;;;;5114963;27;20097;-84
2021/07/25 14:20:49;;;;;;;5.15;2.47;;;27.60;94.90;;;;;;5103071;27;20046;-87
2021/07/25 14:23:36;;;;;;;4.60;2.40;;;27.50;94.40;;;;;;5114924;28;20051;-84
2021/07/25 14:26:23;;;;;;;3.75;2.10;;;27.70;94.20;;;;;;5117427;28;20066;-86
2021/07/25 14:29:10;;;;;;;9.98;2.50;;;27.80;94.30;;;;;;5115442;28;20134;-87
2021/07/25 14:31:57;;;;;;;5.15;2.10;;;27.90;94.60;;;;;;5114093;27;20039;-87